createdAt,value
2019-05-30T00:00:06.788Z,19.69
2019-05-30T00:00:53.938Z,19.71
2019-05-30T00:01:54.133Z,19.69
2019-05-30T00:02:53.933Z,19.68
2019-05-30T00:03:53.945Z,19.69
2019-05-30T00:04:54.008Z,19.69
2019-05-30T00:05:52.677Z,19.68
2019-05-30T00:06:52.700Z,19.69
2019-05-30T00:07:52.659Z,19.68
2019-05-30T00:08:52.642Z,19.68
2019-05-30T00:09:52.636Z,19.68
2019-05-30T00:10:52.619Z,19.69
2019-05-30T00:11:52.633Z,19.68
2019-05-30T00:12:52.630Z,19.68
2019-05-30T00:13:52.587Z,19.69
2019-05-30T00:14:52.584Z,19.69
2019-05-30T00:15:52.569Z,19.69
2019-05-30T00:16:52.554Z,19.68
2019-05-30T00:17:52.542Z,19.68
2019-05-30T00:18:52.574Z,19.69
2019-05-30T00:19:52.529Z,19.66
2019-05-30T00:20:52.510Z,19.69
2019-05-30T00:21:52.527Z,19.68
2019-05-30T00:22:52.499Z,19.68
2019-05-30T00:23:52.478Z,19.68
2019-05-30T00:24:52.492Z,19.66
2019-05-30T00:25:52.460Z,19.68
2019-05-30T00:26:52.455Z,19.68
2019-05-30T00:27:52.433Z,19.66
2019-05-30T00:28:52.429Z,19.68
2019-05-30T00:29:52.449Z,19.69
2019-05-30T00:30:52.400Z,19.66
2019-05-30T00:31:52.394Z,19.68
2019-05-30T00:32:52.387Z,19.68
2019-05-30T00:33:52.369Z,19.66
2019-05-30T00:34:52.372Z,19.66
2019-05-30T00:35:52.365Z,19.68
2019-05-30T00:36:52.339Z,19.66
2019-05-30T00:37:52.328Z,19.68
2019-05-30T00:38:52.321Z,19.68
2019-05-30T00:39:52.329Z,19.68
2019-05-30T00:40:52.298Z,19.68
2019-05-30T00:41:52.279Z,19.68
2019-05-30T00:42:52.269Z,19.66
2019-05-30T00:43:52.262Z,19.66
2019-05-30T00:44:52.289Z,19.68
2019-05-30T00:45:52.238Z,19.68
2019-05-30T00:46:52.238Z,19.69
2019-05-30T00:47:52.218Z,19.68
2019-05-30T00:48:52.208Z,19.68
2019-05-30T00:49:52.220Z,19.66
2019-05-30T00:50:52.180Z,19.69
2019-05-30T00:51:52.182Z,19.66
2019-05-30T00:52:52.162Z,19.68
2019-05-30T00:53:52.152Z,19.68
2019-05-30T00:54:52.146Z,19.68
2019-05-30T00:55:52.148Z,19.66
2019-05-30T00:56:52.134Z,19.66
2019-05-30T00:57:52.118Z,19.68
2019-05-30T00:58:52.097Z,19.66
2019-05-30T00:59:52.091Z,19.66
2019-05-30T01:00:52.078Z,19.68
2019-05-30T01:01:52.086Z,19.68
2019-05-30T01:02:52.070Z,19.66
2019-05-30T01:03:52.088Z,19.68
2019-05-30T01:04:52.027Z,19.66
2019-05-30T01:05:52.032Z,19.66
2019-05-30T01:06:52.021Z,19.68
2019-05-30T01:07:52.031Z,19.66
2019-05-30T01:08:51.991Z,19.66
2019-05-30T01:09:51.981Z,19.68
2019-05-30T01:10:51.963Z,19.66
2019-05-30T01:11:51.960Z,19.66
2019-05-30T01:12:51.950Z,19.66
2019-05-30T01:13:51.948Z,19.65
2019-05-30T01:14:51.925Z,19.66
2019-05-30T01:15:51.918Z,19.66
2019-05-30T01:16:51.901Z,19.65
2019-05-30T01:17:51.885Z,19.65
2019-05-30T01:18:51.873Z,19.65
2019-05-30T01:19:51.891Z,19.66
2019-05-30T01:20:51.859Z,19.66
2019-05-30T01:21:51.843Z,19.66
2019-05-30T01:22:51.837Z,19.65
2019-05-30T01:23:51.818Z,19.65
2019-05-30T01:24:51.813Z,19.65
2019-05-30T01:25:51.821Z,19.65
2019-05-30T01:26:51.795Z,19.66
2019-05-30T01:27:51.831Z,19.66
2019-05-30T01:28:51.774Z,19.66
2019-05-30T01:29:51.800Z,19.66
2019-05-30T01:31:01.445Z,19.65
2019-05-30T01:31:52.736Z,19.65
2019-05-30T01:32:51.730Z,19.66
2019-05-30T01:33:51.733Z,19.66
2019-05-30T01:34:51.697Z,19.66
2019-05-30T01:35:51.696Z,19.66
2019-05-30T01:36:51.685Z,19.66
2019-05-30T01:37:51.672Z,19.66
2019-05-30T01:38:51.661Z,19.65
2019-05-30T01:39:51.662Z,19.66
2019-05-30T01:40:51.661Z,19.66
2019-05-30T01:41:51.625Z,19.66
2019-05-30T01:42:51.622Z,19.66
2019-05-30T01:43:51.598Z,19.66
2019-05-30T01:44:51.609Z,19.66
2019-05-30T01:45:51.579Z,19.66
2019-05-30T01:46:51.595Z,19.66
2019-05-30T01:47:51.557Z,19.65
2019-05-30T01:48:51.546Z,19.65
2019-05-30T01:49:51.533Z,19.66
2019-05-30T01:50:51.579Z,19.66
2019-05-30T01:51:51.518Z,19.66
2019-05-30T01:52:51.530Z,19.65
2019-05-30T01:53:51.513Z,19.66
2019-05-30T01:54:51.486Z,19.66
2019-05-30T01:55:51.466Z,19.66
2019-05-30T01:56:51.491Z,19.66
2019-05-30T01:57:51.448Z,19.66
2019-05-30T01:58:51.439Z,19.66
2019-05-30T01:59:51.436Z,19.66
2019-05-30T02:00:51.417Z,19.66
2019-05-30T02:01:51.407Z,19.66
2019-05-30T02:02:51.412Z,19.65
2019-05-30T02:03:51.408Z,19.66
2019-05-30T02:04:51.371Z,19.66
2019-05-30T02:05:51.366Z,19.66
2019-05-30T02:06:51.369Z,19.66
2019-05-30T02:07:51.357Z,19.66
2019-05-30T02:08:51.367Z,19.66
2019-05-30T02:09:51.319Z,19.66
2019-05-30T02:10:51.307Z,19.68
2019-05-30T02:11:51.297Z,19.66
2019-05-30T02:12:51.299Z,19.66
2019-05-30T02:13:51.289Z,19.66
2019-05-30T02:14:51.268Z,19.66
2019-05-30T02:15:51.273Z,19.66
2019-05-30T02:16:51.255Z,19.68
2019-05-30T02:17:51.235Z,19.66
2019-05-30T02:18:51.269Z,19.66
2019-05-30T02:19:51.208Z,19.66
2019-05-30T02:20:51.200Z,19.65
2019-05-30T02:21:51.184Z,19.68
2019-05-30T02:22:51.177Z,19.66
2019-05-30T02:23:51.164Z,19.65
2019-05-30T02:24:51.176Z,19.65
2019-05-30T02:25:51.145Z,19.65
2019-05-30T02:26:51.156Z,19.65
2019-05-30T02:27:51.118Z,19.66
2019-05-30T02:28:51.107Z,19.65
2019-05-30T02:29:51.121Z,19.66
2019-05-30T02:30:51.090Z,19.66
2019-05-30T02:31:51.074Z,19.66
2019-05-30T02:32:51.061Z,19.65
2019-05-30T02:33:51.052Z,19.68
2019-05-30T02:34:51.083Z,19.66
2019-05-30T02:35:51.029Z,19.65
2019-05-30T02:36:51.028Z,19.66
2019-05-30T02:37:51.009Z,19.66
2019-05-30T02:38:50.996Z,19.66
2019-05-30T02:39:51.004Z,19.66
2019-05-30T02:40:51.014Z,19.65
2019-05-30T02:41:50.978Z,19.65
2019-05-30T02:42:50.962Z,19.66
2019-05-30T02:43:50.945Z,19.65
2019-05-30T02:44:50.941Z,19.65
2019-05-30T02:45:50.931Z,19.65
2019-05-30T02:46:50.929Z,19.65
2019-05-30T02:47:50.899Z,19.65
2019-05-30T02:48:59.036Z,19.63
2019-05-30T02:49:51.903Z,19.65
2019-05-30T02:50:50.874Z,19.65
2019-05-30T02:51:50.875Z,19.65
2019-05-30T02:52:50.853Z,19.63
2019-05-30T02:53:50.835Z,19.65
2019-05-30T02:54:50.821Z,19.63
2019-05-30T02:55:50.817Z,19.65
2019-05-30T02:56:50.803Z,19.65
2019-05-30T02:57:50.826Z,19.63
2019-05-30T02:58:50.784Z,19.65
2019-05-30T02:59:50.774Z,19.65
2019-05-30T03:00:50.759Z,19.65
2019-05-30T03:02:00.856Z,19.65
2019-05-30T03:02:51.761Z,19.63
2019-05-30T03:03:50.728Z,19.63
2019-05-30T03:04:50.721Z,19.63
2019-05-30T03:05:50.706Z,19.63
2019-05-30T03:06:50.697Z,19.63
2019-05-30T03:07:50.681Z,19.63
2019-05-30T03:08:50.688Z,19.63
2019-05-30T03:09:50.656Z,19.63
2019-05-30T03:10:50.653Z,19.63
2019-05-30T03:11:50.635Z,19.63
2019-05-30T03:12:50.657Z,19.63
2019-05-30T03:13:50.648Z,19.63
2019-05-30T03:14:50.603Z,19.61
2019-05-30T03:15:50.588Z,19.63
2019-05-30T03:16:50.579Z,19.65
2019-05-30T03:17:50.570Z,19.62
2019-05-30T03:18:50.568Z,19.63
2019-05-30T03:19:50.570Z,19.63
2019-05-30T03:20:50.560Z,19.63
2019-05-30T03:21:50.532Z,19.63
2019-05-30T03:22:50.521Z,19.63
2019-05-30T03:23:50.506Z,19.63
2019-05-30T03:24:50.511Z,19.63
2019-05-30T03:25:50.500Z,19.63
2019-05-30T03:26:50.496Z,19.63
2019-05-30T03:27:50.470Z,19.63
2019-05-30T03:28:53.337Z,19.62
2019-05-30T03:29:50.434Z,19.62
2019-05-30T03:30:50.428Z,19.62
2019-05-30T03:31:50.423Z,19.63
2019-05-30T03:33:18.978Z,19.63
2019-05-30T03:33:51.436Z,19.63
2019-05-30T03:34:50.561Z,19.63
2019-05-30T03:35:50.417Z,19.62
2019-05-30T03:36:50.389Z,19.63
2019-05-30T03:37:50.351Z,19.63
2019-05-30T03:38:50.344Z,19.63
2019-05-30T03:39:50.350Z,19.62
2019-05-30T03:40:50.316Z,19.63
2019-05-30T03:41:50.307Z,19.63
2019-05-30T03:42:50.295Z,19.63
2019-05-30T03:43:50.288Z,19.62
2019-05-30T03:44:50.299Z,19.63
2019-05-30T03:45:50.266Z,19.62
2019-05-30T03:46:50.257Z,19.61
2019-05-30T03:47:50.244Z,19.62
2019-05-30T03:48:50.240Z,19.63
2019-05-30T03:49:50.263Z,19.63
2019-05-30T03:50:50.212Z,19.63
2019-05-30T03:51:50.206Z,19.63
2019-05-30T03:52:50.185Z,19.63
2019-05-30T03:53:50.176Z,19.63
2019-05-30T03:54:50.194Z,19.63
2019-05-30T03:55:50.186Z,19.65
2019-05-30T03:56:50.149Z,19.63
2019-05-30T03:57:50.151Z,19.65
2019-05-30T03:58:50.137Z,19.65
2019-05-30T03:59:50.111Z,19.65
2019-05-30T04:00:51.347Z,19.63
2019-05-30T04:01:50.116Z,19.63
2019-05-30T04:02:57.128Z,19.63
2019-05-30T04:03:51.086Z,19.63
2019-05-30T04:04:50.062Z,19.63
2019-05-30T04:05:50.050Z,19.62
2019-05-30T04:06:50.037Z,19.62
2019-05-30T04:07:50.050Z,19.62
2019-05-30T04:08:50.031Z,19.63
2019-05-30T04:09:50.004Z,19.63
2019-05-30T04:10:49.989Z,19.62
2019-05-30T04:11:49.988Z,19.63
2019-05-30T04:12:50.009Z,19.63
2019-05-30T04:13:49.966Z,19.63
2019-05-30T04:14:49.952Z,19.63
2019-05-30T04:15:49.945Z,19.63
2019-05-30T04:16:49.931Z,19.63
2019-05-30T04:17:49.919Z,19.63
2019-05-30T04:18:49.922Z,19.63
2019-05-30T04:19:49.896Z,19.63
2019-05-30T04:20:49.884Z,19.63
2019-05-30T04:21:49.881Z,19.63
2019-05-30T04:22:49.863Z,19.65
2019-05-30T04:23:49.868Z,19.63
2019-05-30T04:24:49.835Z,19.63
2019-05-30T04:25:49.848Z,19.62
2019-05-30T04:26:49.822Z,19.62
2019-05-30T04:27:49.802Z,19.63
2019-05-30T04:28:49.798Z,19.62
2019-05-30T04:29:49.781Z,19.63
2019-05-30T04:30:49.814Z,19.63
2019-05-30T04:31:49.762Z,19.63
2019-05-30T04:32:49.767Z,19.62
2019-05-30T04:33:49.742Z,19.63
2019-05-30T04:34:49.738Z,19.62
2019-05-30T04:35:49.723Z,19.63
2019-05-30T04:36:53.137Z,19.63
2019-05-30T04:37:49.693Z,19.63
2019-05-30T04:38:49.689Z,19.63
2019-05-30T04:39:49.677Z,19.61
2019-05-30T04:40:49.669Z,19.63
2019-05-30T04:41:49.652Z,19.63
2019-05-30T04:42:49.668Z,19.62
2019-05-30T04:43:49.641Z,19.62
2019-05-30T04:44:49.641Z,19.62
2019-05-30T04:45:49.615Z,19.62
2019-05-30T04:46:49.605Z,19.62
2019-05-30T04:47:49.589Z,19.62
2019-05-30T04:48:49.606Z,19.61
2019-05-30T04:49:49.565Z,19.61
2019-05-30T04:50:49.561Z,19.63
2019-05-30T04:51:49.546Z,19.63
2019-05-30T04:52:49.534Z,19.62
2019-05-30T04:53:49.551Z,19.62
2019-05-30T04:54:49.539Z,19.62
2019-05-30T04:55:49.503Z,19.62
2019-05-30T04:56:49.487Z,19.62
2019-05-30T04:57:49.480Z,19.63
2019-05-30T04:58:49.479Z,19.62
2019-05-30T04:59:49.494Z,19.61
2019-05-30T05:00:49.444Z,19.62
2019-05-30T05:01:49.437Z,19.61
2019-05-30T05:02:49.429Z,19.63
2019-05-30T05:03:49.416Z,19.62
2019-05-30T05:04:49.404Z,19.62
2019-05-30T05:05:49.414Z,19.62
2019-05-30T05:06:49.386Z,19.63
2019-05-30T05:07:49.396Z,19.63
2019-05-30T05:08:49.368Z,19.62
2019-05-30T05:09:49.352Z,19.61
2019-05-30T05:10:49.363Z,19.62
2019-05-30T05:11:49.330Z,19.63
2019-05-30T05:12:49.321Z,19.62
2019-05-30T05:13:49.304Z,19.62
2019-05-30T05:14:49.291Z,19.61
2019-05-30T05:15:49.286Z,19.61
2019-05-30T05:16:49.294Z,19.62
2019-05-30T05:17:49.268Z,19.65
2019-05-30T05:18:49.261Z,19.62
2019-05-30T05:19:49.244Z,19.63
2019-05-30T05:20:49.281Z,19.62
2019-05-30T05:21:49.235Z,19.63
2019-05-30T05:22:49.209Z,19.62
2019-05-30T05:23:49.193Z,19.63
2019-05-30T05:24:49.193Z,19.62
2019-05-30T05:26:00.530Z,19.63
2019-05-30T05:26:50.184Z,19.62
2019-05-30T05:27:49.160Z,19.62
2019-05-30T05:28:49.140Z,19.63
2019-05-30T05:29:49.135Z,19.62
2019-05-30T05:30:49.128Z,19.63
2019-05-30T05:31:49.111Z,19.62
2019-05-30T05:32:49.123Z,19.63
2019-05-30T05:33:56.658Z,19.63
2019-05-30T05:34:52.023Z,19.62
2019-05-30T05:35:49.064Z,19.63
2019-05-30T05:36:49.056Z,19.62
2019-05-30T05:37:49.081Z,19.62
2019-05-30T05:38:49.058Z,19.62
2019-05-30T05:39:49.024Z,19.62
2019-05-30T05:40:49.022Z,19.62
2019-05-30T05:41:49.005Z,19.62
2019-05-30T05:42:48.991Z,19.63
2019-05-30T05:43:49.007Z,19.62
2019-05-30T05:44:48.968Z,19.62
2019-05-30T05:45:48.958Z,19.61
2019-05-30T05:46:48.948Z,19.63
2019-05-30T05:47:48.930Z,19.62
2019-05-30T05:48:48.929Z,19.62
2019-05-30T05:49:48.950Z,19.62
2019-05-30T05:50:48.900Z,19.62
2019-05-30T05:51:48.897Z,19.62
2019-05-30T05:52:48.884Z,19.62
2019-05-30T05:53:48.880Z,19.62
2019-05-30T05:54:48.857Z,19.62
2019-05-30T05:55:48.887Z,19.62
2019-05-30T05:56:48.837Z,19.62
2019-05-30T05:57:48.829Z,19.62
2019-05-30T05:58:48.821Z,19.61
2019-05-30T05:59:48.802Z,19.62
2019-05-30T06:00:48.798Z,19.62
2019-05-30T06:01:48.813Z,19.62
2019-05-30T06:02:48.773Z,19.62
2019-05-30T06:03:48.763Z,19.63
2019-05-30T06:04:48.760Z,19.62
2019-05-30T06:05:53.052Z,19.63
2019-05-30T06:06:48.731Z,19.63
2019-05-30T06:07:48.749Z,19.63
2019-05-30T06:08:48.709Z,19.62
2019-05-30T06:09:48.697Z,19.62
2019-05-30T06:10:48.691Z,19.62
2019-05-30T06:11:49.191Z,19.63
2019-05-30T06:12:48.668Z,19.61
2019-05-30T06:13:48.688Z,19.62
2019-05-30T06:14:48.641Z,19.62
2019-05-30T06:15:48.633Z,19.62
2019-05-30T06:16:48.618Z,19.62
2019-05-30T06:17:48.610Z,19.63
2019-05-30T06:18:48.637Z,19.63
2019-05-30T06:19:48.591Z,19.62
2019-05-30T06:20:48.577Z,19.63
2019-05-30T06:21:53.831Z,19.62
2019-05-30T06:22:49.557Z,19.63
2019-05-30T06:23:48.550Z,19.62
2019-05-30T06:24:48.554Z,19.62
2019-05-30T06:25:48.547Z,19.63
2019-05-30T06:26:48.517Z,19.62
2019-05-30T06:27:48.504Z,19.62
2019-05-30T06:28:48.494Z,19.63
2019-05-30T06:29:48.503Z,19.62
2019-05-30T06:30:48.472Z,19.62
2019-05-30T06:31:48.463Z,19.63
2019-05-30T06:32:48.448Z,19.62
2019-05-30T06:33:48.441Z,19.62
2019-05-30T06:34:48.454Z,19.63
2019-05-30T06:35:48.432Z,19.63
2019-05-30T06:36:48.426Z,19.62
2019-05-30T06:37:48.393Z,19.63
2019-05-30T06:38:48.391Z,19.63
2019-05-30T06:39:48.378Z,19.62
2019-05-30T06:40:48.412Z,19.63
2019-05-30T06:41:48.355Z,19.63
2019-05-30T06:42:48.338Z,19.63
2019-05-30T06:43:48.333Z,19.63
2019-05-30T06:44:48.316Z,19.63
2019-05-30T06:45:48.307Z,19.63
2019-05-30T06:46:48.317Z,19.63
2019-05-30T06:47:48.290Z,19.65
2019-05-30T06:48:48.277Z,19.63
2019-05-30T06:49:48.292Z,19.65
2019-05-30T06:50:48.258Z,19.63
2019-05-30T06:51:48.515Z,19.63
2019-05-30T06:52:48.230Z,19.65
2019-05-30T06:53:48.225Z,19.65
2019-05-30T06:54:48.209Z,19.65
2019-05-30T06:55:48.199Z,19.65
2019-05-30T06:56:48.190Z,19.63
2019-05-30T06:57:48.196Z,19.65
2019-05-30T06:58:49.141Z,19.65
2019-05-30T06:59:48.179Z,19.65
2019-05-30T07:00:48.166Z,19.63
2019-05-30T07:01:51.815Z,19.65
2019-05-30T07:02:48.162Z,19.63
2019-05-30T07:03:48.235Z,19.65
2019-05-30T07:04:52.065Z,19.65
2019-05-30T07:05:48.439Z,19.66
2019-05-30T07:06:48.315Z,19.66
2019-05-30T07:07:48.330Z,19.65
2019-05-30T07:08:48.060Z,19.65
2019-05-30T07:09:48.051Z,19.65
2019-05-30T07:10:48.070Z,19.65
2019-05-30T07:11:48.025Z,19.65
2019-05-30T07:12:48.027Z,19.65
2019-05-30T07:13:48.007Z,19.65
2019-05-30T07:14:47.998Z,19.65
2019-05-30T07:15:47.981Z,19.65
2019-05-30T07:16:48.020Z,19.66
2019-05-30T07:17:47.960Z,19.66
2019-05-30T07:18:47.962Z,19.66
2019-05-30T07:19:47.946Z,19.66
2019-05-30T07:20:47.932Z,19.68
2019-05-30T07:21:47.919Z,19.66
2019-05-30T07:22:47.956Z,19.66
2019-05-30T07:23:47.894Z,19.68
2019-05-30T07:24:47.889Z,19.66
2019-05-30T07:25:47.873Z,19.66
2019-05-30T07:26:47.867Z,19.66
2019-05-30T07:27:47.849Z,19.66
2019-05-30T07:28:47.866Z,19.66
2019-05-30T07:29:47.835Z,19.66
2019-05-30T07:30:47.826Z,19.68
2019-05-30T07:31:47.817Z,19.66
2019-05-30T07:32:47.811Z,19.68
2019-05-30T07:33:47.819Z,19.68
2019-05-30T07:34:47.777Z,19.68
2019-05-30T07:35:47.767Z,19.68
2019-05-30T07:36:47.756Z,19.68
2019-05-30T07:37:47.743Z,19.66
2019-05-30T07:38:47.733Z,19.66
2019-05-30T07:39:47.748Z,19.68
2019-05-30T07:40:47.709Z,19.68
2019-05-30T07:42:04.940Z,19.68
2019-05-30T07:42:48.686Z,19.66
2019-05-30T07:43:47.682Z,19.68
2019-05-30T07:44:47.705Z,19.68
2019-05-30T07:45:57.644Z,19.66
2019-05-30T07:46:48.653Z,19.65
2019-05-30T07:47:47.643Z,19.66
2019-05-30T07:48:47.623Z,19.66
2019-05-30T07:49:47.615Z,19.66
2019-05-30T07:50:47.623Z,19.66
2019-05-30T07:51:47.597Z,19.66
2019-05-30T07:52:47.584Z,19.65
2019-05-30T07:53:47.573Z,19.66
2019-05-30T07:54:47.562Z,19.68
2019-05-30T07:55:47.580Z,19.65
2019-05-30T07:56:47.541Z,19.66
2019-05-30T07:57:47.529Z,19.66
2019-05-30T07:58:47.517Z,19.65
2019-05-30T07:59:47.514Z,19.66
2019-05-30T08:00:47.494Z,19.66
2019-05-30T08:01:47.506Z,19.66
2019-05-30T08:02:47.475Z,19.65
2019-05-30T08:03:47.468Z,19.66
2019-05-30T08:04:47.456Z,19.66
2019-05-30T08:05:47.443Z,19.66
2019-05-30T08:06:47.465Z,19.65
2019-05-30T08:07:47.424Z,19.65
2019-05-30T08:08:47.416Z,19.66
2019-05-30T08:09:47.403Z,19.65
2019-05-30T08:10:47.392Z,19.66
2019-05-30T08:11:47.386Z,19.66
2019-05-30T08:12:47.402Z,19.66
2019-05-30T08:13:47.360Z,19.65
2019-05-30T08:14:47.356Z,19.66
2019-05-30T08:15:47.339Z,19.66
2019-05-30T08:16:47.324Z,19.66
2019-05-30T08:17:47.317Z,19.66
2019-05-30T08:18:47.344Z,19.65
2019-05-30T08:19:47.295Z,19.65
2019-05-30T08:20:47.284Z,19.66
2019-05-30T08:21:47.271Z,19.66
2019-05-30T08:22:47.256Z,19.66
2019-05-30T08:23:47.277Z,19.66
2019-05-30T08:24:47.242Z,19.66
2019-05-30T08:25:47.229Z,19.66
2019-05-30T08:26:47.223Z,19.65
2019-05-30T08:27:47.230Z,19.66
2019-05-30T08:28:47.192Z,19.66
2019-05-30T08:29:47.192Z,19.65
2019-05-30T08:30:47.174Z,19.65
2019-05-30T08:31:47.172Z,19.65
2019-05-30T08:32:47.154Z,19.66
2019-05-30T08:33:47.583Z,19.66
2019-05-30T08:34:47.131Z,19.66
2019-05-30T08:35:49.828Z,19.66
2019-05-30T08:36:47.111Z,19.65
2019-05-30T08:37:47.100Z,19.65
2019-05-30T08:38:48.188Z,19.65
2019-05-30T08:39:47.077Z,19.65
2019-05-30T08:40:47.067Z,19.66
2019-05-30T08:41:47.060Z,19.65
2019-05-30T08:42:47.041Z,19.66
2019-05-30T08:43:47.034Z,19.66
2019-05-30T08:44:47.058Z,19.66
2019-05-30T08:45:47.014Z,19.66
2019-05-30T08:46:47.005Z,19.66
2019-05-30T08:47:46.994Z,19.66
2019-05-30T08:48:46.982Z,19.65
2019-05-30T08:49:46.968Z,19.66
2019-05-30T08:50:46.982Z,19.65
2019-05-30T08:51:46.953Z,19.65
2019-05-30T08:52:46.937Z,19.66
2019-05-30T08:53:46.922Z,19.66
2019-05-30T08:54:46.912Z,19.68
2019-05-30T08:55:46.903Z,19.68
2019-05-30T08:56:46.910Z,19.66
2019-05-30T08:57:46.883Z,19.68
2019-05-30T08:58:46.876Z,19.68
2019-05-30T08:59:46.865Z,19.66
2019-05-30T09:00:46.847Z,19.68
2019-05-30T09:01:52.553Z,19.68
2019-05-30T09:02:47.832Z,19.66
2019-05-30T09:03:46.814Z,19.66
2019-05-30T09:04:46.826Z,19.69
2019-05-30T09:06:00.822Z,19.68
2019-05-30T09:06:47.801Z,19.68
2019-05-30T09:07:46.771Z,19.68
2019-05-30T09:08:46.771Z,19.68
2019-05-30T09:09:46.758Z,19.66
2019-05-30T09:10:46.738Z,19.66
2019-05-30T09:11:46.759Z,19.68
2019-05-30T09:12:49.584Z,19.66
2019-05-30T09:13:46.857Z,19.68
2019-05-30T09:14:46.968Z,19.66
2019-05-30T09:15:47.083Z,19.66
2019-05-30T09:16:48.265Z,19.66
2019-05-30T09:17:46.936Z,19.66
2019-05-30T09:18:47.460Z,19.68
2019-05-30T09:19:47.461Z,19.68
2019-05-30T09:20:47.441Z,19.68
2019-05-30T09:21:47.512Z,19.68
2019-05-30T09:22:47.447Z,19.68
2019-05-30T09:23:47.915Z,19.68
2019-05-30T09:24:46.682Z,19.68
2019-05-30T09:25:49.058Z,19.66
2019-05-30T09:26:49.848Z,19.68
2019-05-30T09:27:46.772Z,19.68
2019-05-30T09:28:46.571Z,19.69
2019-05-30T09:29:46.551Z,19.68
2019-05-30T09:30:46.574Z,19.68
2019-05-30T09:31:46.767Z,19.68
2019-05-30T09:32:47.021Z,19.68
2019-05-30T09:33:46.684Z,19.68
2019-05-30T09:34:46.980Z,19.69
2019-05-30T09:35:47.054Z,19.68
2019-05-30T09:36:46.950Z,19.69
2019-05-30T09:37:47.831Z,19.66
2019-05-30T09:38:47.480Z,19.68
2019-05-30T09:39:47.387Z,19.68
2019-05-30T09:40:47.550Z,19.68
2019-05-30T09:41:47.680Z,19.68
2019-05-30T09:42:47.386Z,19.68
2019-05-30T09:43:46.530Z,19.68
2019-05-30T09:44:49.216Z,19.71
2019-05-30T09:45:46.394Z,19.69
2019-05-30T09:46:46.997Z,19.69
2019-05-30T09:47:47.171Z,19.69
2019-05-30T09:48:46.733Z,19.69
2019-05-30T09:49:46.586Z,19.69
2019-05-30T09:50:46.795Z,19.71
2019-05-30T09:51:47.018Z,19.69
2019-05-30T09:52:47.118Z,19.69
2019-05-30T09:53:46.277Z,19.71
2019-05-30T09:54:46.265Z,19.71
2019-05-30T09:55:46.311Z,19.71
2019-05-30T09:56:46.611Z,19.69
2019-05-30T09:57:47.447Z,19.68
2019-05-30T09:58:47.644Z,19.69
2019-05-30T09:59:48.178Z,19.69
2019-05-30T10:00:47.220Z,19.69
2019-05-30T10:01:46.209Z,19.69
2019-05-30T10:02:46.729Z,19.71
2019-05-30T10:03:46.556Z,19.69
2019-05-30T10:04:46.895Z,19.71
2019-05-30T10:05:47.016Z,19.69
2019-05-30T10:06:46.330Z,19.71
2019-05-30T10:07:47.436Z,19.71
2019-05-30T10:08:47.730Z,19.68
2019-05-30T10:09:47.124Z,19.69
2019-05-30T10:10:47.720Z,19.68
2019-05-30T10:11:47.175Z,19.71
2019-05-30T10:12:46.907Z,19.68
2019-05-30T10:13:47.477Z,19.68
2019-05-30T10:14:46.905Z,19.68
2019-05-30T10:15:46.975Z,19.69
2019-05-30T10:16:50.331Z,19.69
2019-05-30T10:17:48.169Z,19.68
2019-05-30T10:18:47.242Z,19.68
2019-05-30T10:19:47.155Z,19.68
2019-05-30T10:20:47.764Z,19.68
2019-05-30T10:21:47.115Z,19.68
2019-05-30T10:22:47.118Z,19.68
2019-05-30T10:23:47.547Z,19.68
2019-05-30T10:24:47.539Z,19.69
2019-05-30T10:25:46.742Z,19.68
2019-05-30T10:26:47.129Z,19.68
2019-05-30T10:27:47.950Z,19.68
2019-05-30T10:28:46.411Z,19.68
2019-05-30T10:29:47.493Z,19.68
2019-05-30T10:30:51.793Z,19.69
2019-05-30T10:31:46.886Z,19.68
2019-05-30T10:32:47.234Z,19.68
2019-05-30T10:33:47.495Z,19.68
2019-05-30T10:34:46.665Z,19.68
2019-05-30T10:35:47.342Z,19.68
2019-05-30T10:36:47.154Z,19.69
2019-05-30T10:37:47.147Z,19.69
2019-05-30T10:38:47.300Z,19.68
2019-05-30T10:39:47.266Z,19.68
2019-05-30T10:40:47.018Z,19.68
2019-05-30T10:41:46.223Z,19.69
2019-05-30T10:42:46.209Z,19.68
2019-05-30T10:43:46.442Z,19.68
2019-05-30T10:44:46.246Z,19.66
2019-05-30T10:45:47.489Z,19.69
2019-05-30T10:46:47.005Z,19.69
2019-05-30T10:47:46.284Z,19.68
2019-05-30T10:48:47.266Z,19.66
2019-05-30T10:49:46.844Z,19.68
2019-05-30T10:50:46.870Z,19.68
2019-05-30T10:51:46.644Z,19.68
2019-05-30T10:52:45.628Z,19.68
2019-05-30T10:53:47.396Z,19.68
2019-05-30T10:54:46.730Z,19.69
2019-05-30T10:55:47.059Z,19.68
2019-05-30T10:56:47.038Z,19.68
2019-05-30T10:57:47.000Z,19.68
2019-05-30T10:58:46.641Z,19.68
2019-05-30T10:59:46.153Z,19.69
2019-05-30T11:00:45.637Z,19.68
2019-05-30T11:01:46.700Z,19.68
2019-05-30T11:02:46.077Z,19.66
2019-05-30T11:03:46.025Z,19.68
2019-05-30T11:04:45.917Z,19.66
2019-05-30T11:05:47.085Z,19.68
2019-05-30T11:07:01.621Z,19.69
2019-05-30T11:08:00.139Z,19.68
2019-05-30T11:08:47.950Z,19.68
2019-05-30T11:09:46.625Z,19.68
2019-05-30T11:10:46.398Z,19.68
2019-05-30T11:11:46.612Z,19.68
2019-05-30T11:12:46.627Z,19.66
2019-05-30T11:13:45.406Z,19.66
2019-05-30T11:14:45.403Z,19.68
2019-05-30T11:15:45.397Z,19.68
2019-05-30T11:16:45.382Z,19.68
2019-05-30T11:17:45.400Z,19.66
2019-05-30T11:18:45.358Z,19.68
2019-05-30T11:19:45.339Z,19.69
2019-05-30T11:20:45.324Z,19.68
2019-05-30T11:21:45.315Z,19.68
2019-05-30T11:22:45.331Z,19.68
2019-05-30T11:23:45.297Z,19.68
2019-05-30T11:24:45.286Z,19.68
2019-05-30T11:25:45.276Z,19.69
2019-05-30T11:26:45.259Z,19.66
2019-05-30T11:27:45.246Z,19.69
2019-05-30T11:28:45.260Z,19.68
2019-05-30T11:29:45.228Z,19.68
2019-05-30T11:30:45.260Z,19.68
2019-05-30T11:31:45.206Z,19.68
2019-05-30T11:32:45.199Z,19.68
2019-05-30T11:33:45.181Z,19.69
2019-05-30T11:34:45.171Z,19.66
2019-05-30T11:35:45.197Z,19.66
2019-05-30T11:36:45.155Z,19.68
2019-05-30T11:37:45.143Z,19.66
2019-05-30T11:38:45.125Z,19.66
2019-05-30T11:39:45.119Z,19.66
2019-05-30T11:40:45.106Z,19.68
2019-05-30T11:41:45.138Z,19.68
2019-05-30T11:42:45.090Z,19.66
2019-05-30T11:43:45.081Z,19.69
2019-05-30T11:44:45.067Z,19.69
2019-05-30T11:45:45.055Z,19.66
2019-05-30T11:46:45.046Z,19.68
2019-05-30T11:47:45.060Z,19.69
2019-05-30T11:48:45.020Z,19.68
2019-05-30T11:49:45.011Z,19.68
2019-05-30T11:50:45.005Z,19.68
2019-05-30T11:51:45.002Z,19.68
2019-05-30T11:52:44.980Z,19.69
2019-05-30T11:53:45.002Z,19.69
2019-05-30T11:54:44.960Z,19.69
2019-05-30T11:55:44.946Z,19.68
2019-05-30T11:56:44.933Z,19.68
2019-05-30T11:57:44.956Z,19.69
2019-05-30T11:58:44.914Z,19.68
2019-05-30T11:59:44.927Z,19.69
2019-05-30T12:00:44.893Z,19.69
2019-05-30T12:01:44.888Z,19.69
2019-05-30T12:02:44.873Z,19.69
2019-05-30T12:03:44.863Z,19.69
2019-05-30T12:04:44.888Z,19.71
2019-05-30T12:05:44.839Z,19.69
2019-05-30T12:06:44.832Z,19.69
2019-05-30T12:07:44.816Z,19.68
2019-05-30T12:08:44.809Z,19.69
2019-05-30T12:09:44.814Z,19.68
2019-05-30T12:10:44.787Z,19.69
2019-05-30T12:11:44.780Z,19.69
2019-05-30T12:12:44.769Z,19.71
2019-05-30T12:13:44.754Z,19.69
2019-05-30T12:14:44.751Z,19.69
2019-05-30T12:15:44.759Z,19.69
2019-05-30T12:16:44.724Z,19.69
2019-05-30T12:17:44.715Z,19.69
2019-05-30T12:18:44.696Z,19.68
2019-05-30T12:19:44.708Z,19.69
2019-05-30T12:20:44.678Z,19.68
2019-05-30T12:21:44.664Z,19.69
2019-05-30T12:22:44.651Z,19.68
2019-05-30T12:23:44.644Z,19.69
2019-05-30T12:24:44.629Z,19.69
2019-05-30T12:25:44.657Z,19.69
2019-05-30T12:26:44.609Z,19.68
2019-05-30T12:27:44.600Z,19.68
2019-05-30T12:28:44.592Z,19.68
2019-05-30T12:29:44.579Z,19.69
2019-05-30T12:30:55.991Z,19.68
2019-05-30T12:31:45.594Z,19.68
2019-05-30T12:32:44.545Z,19.68
2019-05-30T12:33:44.541Z,19.69
2019-05-30T12:34:44.527Z,19.68
2019-05-30T12:35:44.517Z,19.68
2019-05-30T12:36:44.506Z,19.69
2019-05-30T12:37:55.105Z,19.68
2019-05-30T12:38:45.486Z,19.68
2019-05-30T12:39:44.470Z,19.69
2019-05-30T12:40:44.461Z,19.69
2019-05-30T12:41:44.475Z,19.69
2019-05-30T12:42:44.443Z,19.68
2019-05-30T12:43:44.427Z,19.69
2019-05-30T12:44:44.420Z,19.68
2019-05-30T12:45:44.409Z,19.69
2019-05-30T12:46:44.393Z,19.69
2019-05-30T12:47:44.409Z,19.68
2019-05-30T12:48:44.378Z,19.69
2019-05-30T12:49:44.366Z,19.68
2019-05-30T12:50:44.353Z,19.68
2019-05-30T12:51:44.345Z,19.68